createdAt,value
2018-04-13T00:00:13.966Z,7.10
2018-04-13T00:02:42.721Z,6.72
2018-04-13T00:05:10.628Z,9.23
2018-04-13T00:07:38.587Z,12.25
2018-04-13T00:10:07.261Z,9.77
2018-04-13T00:12:35.197Z,8.20
2018-04-13T00:15:03.143Z,6.97
2018-04-13T00:17:31.075Z,6.62
2018-04-13T00:19:58.978Z,8.73
2018-04-13T00:22:26.929Z,7.25
2018-04-13T00:24:55.574Z,7.32
2018-04-13T00:27:23.527Z,10.73
2018-04-13T00:29:51.415Z,7.97
2018-04-13T00:32:19.362Z,8.25
2018-04-13T00:34:47.240Z,8.85
2018-04-13T00:37:15.180Z,11.60
2018-04-13T00:39:43.060Z,8.77
2018-04-13T00:42:10.996Z,7.90
2018-04-13T00:44:39.643Z,7.50
2018-04-13T00:47:07.589Z,6.75
2018-04-13T00:49:35.465Z,7.03
2018-04-13T00:52:03.462Z,8.57
2018-04-13T00:54:31.342Z,7.25
2018-04-13T00:56:59.291Z,7.30
2018-04-13T00:59:27.179Z,7.50
2018-04-13T01:01:55.122Z,6.80
2018-04-13T01:04:23.014Z,7.03
2018-04-13T01:06:50.975Z,7.28
2018-04-13T01:09:18.856Z,8.02
2018-04-13T01:11:46.806Z,7.55
2018-04-13T01:14:14.704Z,7.62
2018-04-13T01:16:43.421Z,10.30
2018-04-13T01:19:12.088Z,7.90
2018-04-13T01:21:40.800Z,11.45
2018-04-13T01:24:08.690Z,9.60
2018-04-13T01:26:36.625Z,7.95
2018-04-13T01:29:04.510Z,6.65
2018-04-13T01:31:32.453Z,11.35
2018-04-13T01:34:01.096Z,8.65
2018-04-13T01:36:29.032Z,6.82
2018-04-13T01:38:56.916Z,7.37
2018-04-13T01:41:24.851Z,6.65
2018-04-13T01:43:52.733Z,6.05
2018-04-13T01:46:20.690Z,8.77
2018-04-13T01:48:48.586Z,10.27
2018-04-13T01:51:16.534Z,9.15
2018-04-13T01:53:44.419Z,6.72
2018-04-13T01:56:12.352Z,6.53
2018-04-13T01:58:41.041Z,6.12
2018-04-13T02:01:09.752Z,7.90
2018-04-13T02:03:37.635Z,6.95
2018-04-13T02:06:05.579Z,6.97
2018-04-13T02:08:33.469Z,7.95
2018-04-13T02:11:01.357Z,7.28
2018-04-13T02:13:29.292Z,11.02
2018-04-13T02:15:57.172Z,6.47
2018-04-13T02:18:25.126Z,8.25
2018-04-13T02:20:53.012Z,7.10
2018-04-13T02:23:20.944Z,7.37
2018-04-13T02:25:49.608Z,10.95
2018-04-13T02:28:17.583Z,6.28
2018-04-13T02:30:45.477Z,7.00
2018-04-13T02:33:14.181Z,8.07
2018-04-13T02:35:42.066Z,13.65
2018-04-13T02:38:10.014Z,6.22
2018-04-13T02:40:37.896Z,6.45
2018-04-13T02:43:05.876Z,7.40
2018-04-13T02:45:33.776Z,9.57
2018-04-13T02:48:01.718Z,8.45
2018-04-13T02:50:29.590Z,7.10
2018-04-13T02:52:57.522Z,9.27
2018-04-13T02:55:26.178Z,9.38
2018-04-13T02:57:54.109Z,7.80
2018-04-13T03:00:21.990Z,7.60
2018-04-13T03:02:49.921Z,6.45
2018-04-13T03:05:17.809Z,6.32
2018-04-13T03:07:45.731Z,7.30
2018-04-13T03:10:13.608Z,8.00
2018-04-13T03:12:42.333Z,6.70
2018-04-13T03:15:10.232Z,6.35
2018-04-13T03:17:38.176Z,7.22
2018-04-13T03:20:06.059Z,6.78
2018-04-13T03:22:33.989Z,8.93
2018-04-13T03:25:01.889Z,8.35
2018-04-13T03:27:29.842Z,9.35
2018-04-13T03:29:57.742Z,10.88
2018-04-13T03:32:25.673Z,13.30
2018-04-13T03:34:53.557Z,7.68
2018-04-13T03:37:21.492Z,8.85
2018-04-13T03:39:49.402Z,11.57
2018-04-13T03:42:17.340Z,8.45
2018-04-13T03:44:45.223Z,11.85
2018-04-13T03:47:13.928Z,11.12
2018-04-13T03:49:41.841Z,10.25
2018-04-13T03:52:09.788Z,11.27
2018-04-13T03:54:37.683Z,12.60
2018-04-13T03:57:06.390Z,14.73
2018-04-13T03:59:34.288Z,9.20
2018-04-13T04:02:02.229Z,8.35
2018-04-13T04:04:30.122Z,6.85
2018-04-13T04:06:58.905Z,7.57
2018-04-13T04:09:26.784Z,7.85
2018-04-13T04:11:54.724Z,7.82
2018-04-13T04:14:22.626Z,10.05
2018-04-13T04:16:51.781Z,7.62
2018-04-13T04:19:22.211Z,7.65
2018-04-13T04:22:02.791Z,8.65
2018-04-13T04:27:34.005Z,10.50
2018-04-13T04:30:01.889Z,14.90
2018-04-13T04:32:29.840Z,7.78
2018-04-13T04:34:57.750Z,8.75
2018-04-13T04:37:26.466Z,11.25
2018-04-13T04:39:55.209Z,7.97
2018-04-13T04:42:23.245Z,7.55
2018-04-13T04:44:54.705Z,8.27
2018-04-13T04:47:26.436Z,8.55
2018-04-13T04:49:57.564Z,7.60
2018-04-13T04:52:28.661Z,10.15
2018-04-13T04:54:56.748Z,11.57
2018-04-13T04:57:24.702Z,7.72
2018-04-13T04:59:59.009Z,8.98
2018-04-13T05:02:30.972Z,10.57
2018-04-13T05:05:02.439Z,8.23
2018-04-13T05:07:36.129Z,7.85
2018-04-13T05:10:08.370Z,9.02
2018-04-13T05:12:41.485Z,10.23
2018-04-13T05:15:10.983Z,8.07
2018-04-13T05:17:45.793Z,9.38
2018-04-13T05:20:17.139Z,9.30
2018-04-13T05:22:45.300Z,7.43
2018-04-13T05:25:17.494Z,7.70
2018-04-13T05:27:49.340Z,7.62
2018-04-13T05:30:20.913Z,7.78
2018-04-13T05:32:52.302Z,10.48
2018-04-13T05:35:23.437Z,8.70
2018-04-13T05:37:56.212Z,8.10
2018-04-13T05:40:28.426Z,9.55
2018-04-13T05:43:01.596Z,6.87
2018-04-13T05:45:31.641Z,7.87
2018-04-13T05:48:04.401Z,10.73
2018-04-13T05:50:36.020Z,7.40
2018-04-13T05:53:07.401Z,12.52
2018-04-13T05:55:37.645Z,11.07
2018-04-13T05:58:08.849Z,8.80
2018-04-13T06:00:40.495Z,8.65
2018-04-13T06:03:11.674Z,9.93
2018-04-13T06:05:44.613Z,7.53
2018-04-13T06:08:16.701Z,10.40
2018-04-13T06:10:44.584Z,8.38
2018-04-13T06:13:15.888Z,7.85
2018-04-13T06:15:46.561Z,8.75
2018-04-13T06:18:16.164Z,8.57
2018-04-13T06:20:47.561Z,7.50
2018-04-13T06:23:17.961Z,10.70
2018-04-13T06:25:49.131Z,7.50
2018-04-13T06:28:20.180Z,8.48
2018-04-13T06:30:53.446Z,10.10
2018-04-13T06:33:29.444Z,9.95
2018-04-13T06:36:00.538Z,10.20
2018-04-13T06:38:32.092Z,8.15
2018-04-13T06:41:03.208Z,8.02
2018-04-13T06:43:31.284Z,7.28
2018-04-13T06:46:02.400Z,7.97
2018-04-13T06:48:34.176Z,7.45
2018-04-13T06:51:03.184Z,7.57
2018-04-13T06:53:34.447Z,7.00
2018-04-13T06:56:04.310Z,8.95
2018-04-13T06:58:33.119Z,12.10
2018-04-13T07:01:01.009Z,8.15
2018-04-13T07:03:29.713Z,8.15
2018-04-13T07:05:57.591Z,6.85
2018-04-13T07:08:25.564Z,8.02
2018-04-13T07:10:53.453Z,10.75
2018-04-13T07:13:25.460Z,7.45
2018-04-13T07:15:53.367Z,11.88
2018-04-13T07:18:21.296Z,9.90
2018-04-13T07:20:49.171Z,9.13
2018-04-13T07:23:17.878Z,8.75
2018-04-13T07:25:45.842Z,9.07
2018-04-13T07:28:13.787Z,7.35
2018-04-13T07:30:41.660Z,7.93
2018-04-13T07:33:09.598Z,8.35
2018-04-13T07:35:38.263Z,8.60
2018-04-13T07:38:06.229Z,10.50
2018-04-13T07:40:34.129Z,11.68
2018-04-13T07:43:02.853Z,8.82
2018-04-13T07:45:30.755Z,11.90
2018-04-13T07:47:58.701Z,11.77
2018-04-13T07:50:26.588Z,9.82
2018-04-13T07:52:54.534Z,11.63
2018-04-13T07:55:22.437Z,13.40
2018-04-13T07:57:50.411Z,12.57
2018-04-13T08:00:18.352Z,11.20
2018-04-13T08:02:46.256Z,10.52
2018-04-13T08:05:15.061Z,12.50
2018-04-13T08:07:43.843Z,11.80
2018-04-13T08:10:11.764Z,12.77
2018-04-13T08:12:39.653Z,14.03
2018-04-13T08:15:07.612Z,16.20
2018-04-13T08:17:35.503Z,16.23
2018-04-13T08:20:03.494Z,19.23
2018-04-13T08:22:32.149Z,16.07
2018-04-13T08:25:00.095Z,15.60
2018-04-13T08:27:27.987Z,16.40
2018-04-13T08:29:57.984Z,16.00
2018-04-13T08:32:25.951Z,15.87
2018-04-13T08:34:53.919Z,15.23
2018-04-13T08:37:21.805Z,16.70
2018-04-13T08:39:49.746Z,22.63
2018-04-13T08:42:17.697Z,19.60
2018-04-13T08:44:45.651Z,18.63
2018-04-13T08:47:18.698Z,17.57
2018-04-13T08:49:46.644Z,19.40
2018-04-13T08:52:14.536Z,19.20
2018-04-13T08:54:42.481Z,18.67
2018-04-13T08:57:10.456Z,25.67
2018-04-13T08:59:38.411Z,23.33
2018-04-13T09:02:06.346Z,24.23
2018-04-13T09:04:34.293Z,25.27
2018-04-13T09:07:02.336Z,26.30
2018-04-13T09:09:30.287Z,28.90
2018-04-13T09:11:58.169Z,24.93
2018-04-13T09:14:26.203Z,26.03
2018-04-13T09:16:54.857Z,26.17
2018-04-13T09:19:22.814Z,33.30
2018-04-13T09:21:50.691Z,35.80
2018-04-13T09:24:18.638Z,32.67
2018-04-13T09:26:46.543Z,36.53
2018-04-13T09:29:14.503Z,43.47
2018-04-13T09:31:42.467Z,41.53
2018-04-13T09:34:10.481Z,35.03
2018-04-13T09:36:39.134Z,40.27
2018-04-13T09:39:07.138Z,45.47
2018-04-13T09:41:35.844Z,45.60
2018-04-13T09:44:03.802Z,40.37
2018-04-13T09:46:32.524Z,43.43
2018-04-13T09:49:00.421Z,39.87
2018-04-13T09:51:28.372Z,39.30
2018-04-13T09:53:57.053Z,44.63
2018-04-13T09:56:25.023Z,38.47
2018-04-13T09:58:52.941Z,38.40
2018-04-13T10:01:21.680Z,38.10
2018-04-13T10:03:50.377Z,42.20
2018-04-13T10:06:18.329Z,40.67
2018-04-13T10:08:46.247Z,41.60
2018-04-13T10:11:14.205Z,40.23
2018-04-13T10:13:42.144Z,45.23
2018-04-13T10:16:10.124Z,43.70
2018-04-13T10:18:38.950Z,38.23
2018-04-13T10:21:07.056Z,48.17
2018-04-13T10:23:35.719Z,45.73
2018-04-13T10:26:03.862Z,42.50
2018-04-13T10:28:31.745Z,43.53
2018-04-13T10:30:59.705Z,40.47
2018-04-13T10:33:27.585Z,47.53
2018-04-13T10:35:55.534Z,58.30
2018-04-13T10:38:23.426Z,59.27
2018-04-13T10:40:51.407Z,52.93
2018-04-13T10:43:19.347Z,56.50
2018-04-13T10:45:47.321Z,56.07
2018-04-13T10:48:15.265Z,57.37
2018-04-13T10:50:43.206Z,51.93
2018-04-13T10:53:11.927Z,48.80
2018-04-13T10:55:39.825Z,55.10
2018-04-13T10:58:07.778Z,56.70
2018-04-13T11:00:35.677Z,57.87
2018-04-13T11:03:03.634Z,56.83
2018-04-13T11:05:31.559Z,53.90
2018-04-13T11:07:59.669Z,55.87
2018-04-13T11:10:27.621Z,55.50
2018-04-13T11:12:55.568Z,55.07
2018-04-13T11:15:23.461Z,55.20
2018-04-13T11:17:51.429Z,57.07
2018-04-13T11:20:19.322Z,52.10
2018-04-13T11:22:47.310Z,49.67
2018-04-13T11:25:15.224Z,54.33
2018-04-13T11:27:43.177Z,48.60
2018-04-13T11:30:11.119Z,53.00
2018-04-13T11:32:39.067Z,52.87
2018-04-13T11:35:06.974Z,49.00
2018-04-13T11:37:35.732Z,50.27
2018-04-13T11:40:03.687Z,46.20
2018-04-13T11:42:31.653Z,47.57
2018-04-13T11:44:59.556Z,43.83
2018-04-13T11:47:27.464Z,48.17
2018-04-13T11:49:55.425Z,45.50
2018-04-13T11:52:23.338Z,40.77
2018-04-13T11:54:51.287Z,48.27
2018-04-13T11:57:19.942Z,38.20
2018-04-13T11:59:48.660Z,43.47
2018-04-13T12:02:16.620Z,41.10
2018-04-13T12:04:44.563Z,40.23
2018-04-13T12:07:13.240Z,43.50
2018-04-13T12:09:41.983Z,45.90
2018-04-13T12:12:09.894Z,42.67
2018-04-13T12:14:37.864Z,40.20
2018-04-13T12:17:05.800Z,34.40
2018-04-13T12:19:33.767Z,36.60
2018-04-13T12:22:01.677Z,31.90
2018-04-13T12:24:29.632Z,32.60
2018-04-13T12:26:57.541Z,33.23
2018-04-13T12:29:25.508Z,32.57
2018-04-13T12:31:54.235Z,32.70
2018-04-13T12:34:22.257Z,30.60
2018-04-13T12:36:50.916Z,30.23
2018-04-13T12:39:18.889Z,32.43
2018-04-13T12:41:46.795Z,31.83
2018-04-13T12:44:15.510Z,34.47
2018-04-13T12:46:43.400Z,26.60
2018-04-13T12:49:11.359Z,28.97
2018-04-13T12:51:39.271Z,24.30
2018-04-13T12:54:08.141Z,31.70
2018-04-13T12:56:36.152Z,27.33
2018-04-13T12:59:04.857Z,29.20
2018-04-13T13:01:32.779Z,27.63
2018-04-13T13:04:00.748Z,24.97
2018-04-13T13:06:28.694Z,24.50
2018-04-13T13:08:56.718Z,20.83
2018-04-13T13:11:24.692Z,23.30
2018-04-13T13:13:52.604Z,23.90
2018-04-13T13:16:20.554Z,21.17
2018-04-13T13:18:48.507Z,20.23
2018-04-13T13:21:16.508Z,24.17
2018-04-13T13:23:44.403Z,27.27
2018-04-13T13:26:12.402Z,20.53
2018-04-13T13:28:41.091Z,16.90
2018-04-13T13:31:09.813Z,26.73
2018-04-13T13:33:37.723Z,21.07
2018-04-13T13:36:05.693Z,25.13
2018-04-13T13:38:33.594Z,22.37
2018-04-13T13:41:01.558Z,18.90
2018-04-13T13:43:30.219Z,21.07
2018-04-13T13:45:58.193Z,13.87
2018-04-13T13:48:26.106Z,11.50
2018-04-13T13:50:54.073Z,13.93
2018-04-13T13:53:26.910Z,7.40
2018-04-13T13:55:54.873Z,6.90
2018-04-13T13:58:22.773Z,7.47
2018-04-13T14:00:51.471Z,9.60
2018-04-13T14:03:19.344Z,4.30
2018-04-13T14:05:47.285Z,7.20
2018-04-13T14:08:15.961Z,4.30
2018-04-13T14:10:43.909Z,5.53
2018-04-13T14:13:11.847Z,7.77
2018-04-13T14:15:39.791Z,3.03
2018-04-13T14:18:08.433Z,3.43
2018-04-13T14:20:36.378Z,2.87
2018-04-13T14:23:04.268Z,3.80
2018-04-13T14:25:32.222Z,3.40
2018-04-13T14:28:00.103Z,6.03
2018-04-13T14:30:28.122Z,3.00
2018-04-13T14:32:56.015Z,1.63
2018-04-13T14:35:23.963Z,1.93
2018-04-13T14:37:52.624Z,2.53
2018-04-13T14:40:20.518Z,1.70
2018-04-13T14:42:49.163Z,2.53
2018-04-13T14:45:17.052Z,4.43
2018-04-13T14:47:44.996Z,1.73
2018-04-13T14:50:12.888Z,2.40
2018-04-13T14:52:40.850Z,2.70
2018-04-13T14:55:08.752Z,2.80
2018-04-13T14:57:37.485Z,13.20
2018-04-13T15:00:05.376Z,11.20
2018-04-13T15:02:33.373Z,16.00
2018-04-13T15:05:01.340Z,13.30
2018-04-13T15:07:29.308Z,11.07
2018-04-13T15:09:57.206Z,13.20
2018-04-13T15:12:25.157Z,10.87
2018-04-13T15:14:53.819Z,12.00
2018-04-13T15:17:21.771Z,9.67
2018-04-13T15:19:49.667Z,9.87
2018-04-13T15:22:17.618Z,8.60
2018-04-13T15:24:45.568Z,8.43
2018-04-13T15:27:13.519Z,6.77
2018-04-13T15:29:41.412Z,7.47
2018-04-13T15:32:09.306Z,7.60
2018-04-13T15:34:37.236Z,9.30
2018-04-13T15:37:05.156Z,7.10
2018-04-13T15:39:33.107Z,5.77
2018-04-13T15:42:01.006Z,6.10
2018-04-13T15:44:29.730Z,6.57
2018-04-13T15:46:57.684Z,6.83
2018-04-13T15:49:25.646Z,7.50
2018-04-13T15:51:53.563Z,6.97
2018-04-13T15:54:21.515Z,6.13
2018-04-13T15:56:50.532Z,5.80
2018-04-13T15:59:18.671Z,9.10
2018-04-13T16:01:46.672Z,5.03
2018-04-13T16:04:14.679Z,8.87
2018-04-13T16:06:42.626Z,8.53
2018-04-13T16:09:10.633Z,8.00
2018-04-13T16:11:38.534Z,7.23
2018-04-13T16:14:06.525Z,6.27
2018-04-13T16:16:34.427Z,6.13
2018-04-13T16:19:03.142Z,6.63
2018-04-13T16:21:31.032Z,9.23
2018-04-13T16:23:58.984Z,8.40
2018-04-13T16:26:26.930Z,9.83
2018-04-13T16:28:55.594Z,9.23
2018-04-13T16:31:23.581Z,11.27
2018-04-13T16:33:52.271Z,8.47
2018-04-13T16:36:20.239Z,9.53
2018-04-13T16:38:48.125Z,9.37
2018-04-13T16:41:16.824Z,10.60
2018-04-13T16:43:44.776Z,10.70
2018-04-13T16:46:13.498Z,11.90
2018-04-13T16:48:41.387Z,9.20
2018-04-13T16:51:09.901Z,11.10
2018-04-13T16:53:37.789Z,11.57
2018-04-13T16:56:06.496Z,17.03
2018-04-13T16:58:34.400Z,9.20
2018-04-13T17:01:02.354Z,9.97
2018-04-13T17:03:30.291Z,10.10
2018-04-13T17:05:58.258Z,10.03
2018-04-13T17:08:26.941Z,8.30
2018-04-13T17:10:55.683Z,9.70
2018-04-13T17:13:23.584Z,8.50
2018-04-13T17:15:58.837Z,9.95
2018-04-13T17:18:26.778Z,9.35
2018-04-13T17:20:54.728Z,7.97
2018-04-13T17:23:22.613Z,9.63
2018-04-13T17:25:50.578Z,11.25
2018-04-13T17:28:18.494Z,12.25
2018-04-13T17:30:46.439Z,12.73
2018-04-13T17:33:14.443Z,12.63
2018-04-13T17:35:42.401Z,12.53
2018-04-13T17:38:10.355Z,14.10
2018-04-13T17:40:39.095Z,14.17
2018-04-13T17:43:07.051Z,10.43
2018-04-13T17:45:35.305Z,16.45
2018-04-13T17:48:03.225Z,16.42
2018-04-13T17:50:31.198Z,14.60
2018-04-13T17:52:59.113Z,11.70
2018-04-13T17:55:27.750Z,11.00
2018-04-13T17:57:58.288Z,9.90
2018-04-13T18:00:26.399Z,9.65
2018-04-13T18:02:54.357Z,14.23
2018-04-13T18:05:24.601Z,13.00
2018-04-13T18:07:52.511Z,18.23
2018-04-13T18:10:20.493Z,12.60
2018-04-13T18:12:48.411Z,12.73
2018-04-13T18:15:16.372Z,15.73
2018-04-13T18:17:45.059Z,10.13
2018-04-13T18:20:14.337Z,12.00
2018-04-13T18:22:45.391Z,11.73
2018-04-13T18:25:14.150Z,10.30
2018-04-13T18:27:42.133Z,13.27
2018-04-13T18:30:10.829Z,17.60
2018-04-13T18:32:38.801Z,13.57
2018-04-13T18:35:07.500Z,12.68
2018-04-13T18:37:36.830Z,12.80
2018-04-13T18:40:04.760Z,12.05
2018-04-13T18:42:35.634Z,12.48
2018-04-13T18:45:06.383Z,11.57
2018-04-13T18:47:36.232Z,12.60
2018-04-13T18:50:08.551Z,16.17
2018-04-13T18:52:39.154Z,11.48
2018-04-13T18:55:11.004Z,12.15
2018-04-13T18:57:42.483Z,14.20
2018-04-13T19:00:13.426Z,13.23
2018-04-13T19:02:45.003Z,15.63
2018-04-13T19:05:16.110Z,16.00
2018-04-13T19:07:48.162Z,13.20
2018-04-13T19:10:19.768Z,13.55
2018-04-13T19:12:51.786Z,15.70
2018-04-13T19:15:22.626Z,13.60
2018-04-13T19:17:54.881Z,16.85
2018-04-13T19:20:22.956Z,17.10
2018-04-13T19:22:50.920Z,16.40
2018-04-13T19:25:18.939Z,16.85
2018-04-13T19:27:46.936Z,15.20
2018-04-13T19:30:14.829Z,20.65
2018-04-13T19:32:42.790Z,17.12
2018-04-13T19:35:10.692Z,15.13
2018-04-13T19:37:38.639Z,18.42
2018-04-13T19:40:06.544Z,17.70
2018-04-13T19:42:34.505Z,18.35
2018-04-13T19:45:02.991Z,15.27
2018-04-13T19:47:31.720Z,23.40
2018-04-13T19:49:59.618Z,20.60
2018-04-13T19:52:30.424Z,17.08
2018-04-13T19:54:58.684Z,17.37
2018-04-13T19:57:26.647Z,16.67
2018-04-13T19:59:54.548Z,18.50
2018-04-13T20:02:22.546Z,19.80
2018-04-13T20:04:50.481Z,23.85
2018-04-13T20:07:18.496Z,18.85
2018-04-13T20:09:46.403Z,19.15
2018-04-13T20:12:14.453Z,24.58
2018-04-13T20:14:43.117Z,15.15
2018-04-13T20:17:11.079Z,16.92
2018-04-13T20:19:38.971Z,15.02
2018-04-13T20:22:06.933Z,15.70
2018-04-13T20:24:34.828Z,16.02
2018-04-13T20:27:02.846Z,16.33
2018-04-13T20:29:30.820Z,14.60
2018-04-13T20:31:58.784Z,14.65
2018-04-13T20:34:26.750Z,14.20
2018-04-13T20:36:55.500Z,18.65
2018-04-13T20:39:24.161Z,16.35
2018-04-13T20:41:52.192Z,17.83
2018-04-13T20:44:20.100Z,15.20
2018-04-13T20:46:48.000Z,17.73
2018-04-13T20:49:15.994Z,17.67
2018-04-13T20:51:43.905Z,17.30
2018-04-13T20:54:11.846Z,14.80
2018-04-13T20:56:39.789Z,16.27
2018-04-13T20:59:07.739Z,19.75
2018-04-13T21:01:36.400Z,16.85
2018-04-13T21:04:04.453Z,16.87
2018-04-13T21:06:32.356Z,16.02
2018-04-13T21:09:00.313Z,15.80
2018-04-13T21:11:28.205Z,15.93
2018-04-13T21:13:56.922Z,15.65
2018-04-13T21:16:24.823Z,15.90
2018-04-13T21:18:52.768Z,17.73
2018-04-13T21:21:20.670Z,13.62
2018-04-13T21:23:48.702Z,14.75
2018-04-13T21:26:18.613Z,11.93
2018-04-13T21:28:46.666Z,11.90
2018-04-13T21:31:15.335Z,12.80
2018-04-13T21:33:43.281Z,11.10
2018-04-13T21:36:13.196Z,15.27
2018-04-13T21:38:46.275Z,12.45
2018-04-13T21:41:17.263Z,12.48
2018-04-13T21:43:48.532Z,11.40
2018-04-13T21:46:20.420Z,12.23
2018-04-13T21:48:52.119Z,14.70
2018-04-13T21:51:22.999Z,15.30
2018-04-13T21:53:54.079Z,11.32
2018-04-13T21:56:25.066Z,10.98
2018-04-13T21:58:56.746Z,10.90
2018-04-13T22:01:27.427Z,15.18
2018-04-13T22:03:59.585Z,11.00
2018-04-13T22:06:31.273Z,13.35
2018-04-13T22:09:03.540Z,13.88
2018-04-13T22:11:35.288Z,12.82
2018-04-13T22:17:14.697Z,13.48
2018-04-13T22:19:43.578Z,10.73
2018-04-13T22:22:11.476Z,9.52
2018-04-13T22:24:39.440Z,11.85
2018-04-13T22:27:09.916Z,9.45
2018-04-13T22:29:41.447Z,20.58
2018-04-13T22:32:11.936Z,16.17
2018-04-13T22:34:43.370Z,12.45
2018-04-13T22:37:15.615Z,17.80
2018-04-13T22:39:46.624Z,18.27
2018-04-13T22:42:17.769Z,18.95
2018-04-13T22:44:49.859Z,24.37
2018-04-13T22:47:20.771Z,19.77
2018-04-13T22:49:53.708Z,23.00
2018-04-13T22:52:25.782Z,26.60
2018-04-13T22:54:53.912Z,18.65
2018-04-13T22:57:21.816Z,16.10
2018-04-13T22:59:50.483Z,17.62
2018-04-13T23:02:18.474Z,15.27
2018-04-13T23:04:47.151Z,14.98
2018-04-13T23:07:15.895Z,16.17
2018-04-13T23:09:43.796Z,16.83
2018-04-13T23:12:11.780Z,16.48
2018-04-13T23:14:39.706Z,17.00
2018-04-13T23:17:07.691Z,15.80
2018-04-13T23:19:35.600Z,14.30
2018-04-13T23:22:04.334Z,18.48
2018-04-13T23:24:32.246Z,15.32
2018-04-13T23:27:00.231Z,16.92
2018-04-13T23:29:28.911Z,15.00
2018-04-13T23:31:57.628Z,13.57
2018-04-13T23:34:25.538Z,15.85
2018-04-13T23:36:55.848Z,16.30
2018-04-13T23:39:26.517Z,19.42
2018-04-13T23:41:57.801Z,17.85
2018-04-13T23:44:28.653Z,17.12
2018-04-13T23:46:59.346Z,18.02
2018-04-13T23:49:30.128Z,21.20
2018-04-13T23:52:02.308Z,17.50
2018-04-13T23:54:33.764Z,18.37
2018-04-13T23:57:05.142Z,19.23
2018-04-13T23:59:35.874Z,20.90
